Time;durP1;ratioP1;P1;durP2;ratioP2;P2;SDS_P1;SDS_P2;PMS_P1;PMS_P2;Temp;Humidity;BMP_temperature;BMP_pressure;BME280_temperature;BME280_humidity;BME280_pressure;Samples;Min_cycle;Max_cycle;Signal;HPM_P1;HPM_P2
2022/06/27 00:00:09;;;;;;;;;;;;;;;24.48;100.00;98826.56;5034023;28;20341;-53
2022/06/27 00:02:35;;;;;;;;;;;;;;;24.23;100.00;98821.88;5033241;28;20008;-52
2022/06/27 00:05:00;;;;;;;;;;;;;;;24.73;100.00;98824.28;5033694;28;19924;-53
2022/06/27 00:07:26;;;;;;;;;;;;;;;25.07;100.00;98831.63;5034954;28;19935;-55
2022/06/27 00:09:51;;;;;;;;;;;;;;;24.85;100.00;98844.19;5034683;28;19921;-54
2022/06/27 00:12:16;;;;;;;;;;;;;;;25.12;100.00;98839.94;5034349;28;19943;-54
2022/06/27 00:14:41;;;;;;;;;;;;;;;25.12;100.00;98846.03;5033017;28;19928;-55
2022/06/27 00:17:07;;;;;;;;;;;;;;;24.85;100.00;98838.91;5034346;28;20358;-54
2022/06/27 00:19:32;;;;;;;;;;;;;;;25.05;100.00;98840.50;5033597;28;20321;-53
2022/06/27 00:21:57;;;;;;;;;;;;;;;25.01;100.00;98840.94;5033630;28;19954;-54
2022/06/27 00:24:23;;;;;;;;;;;;;;;25.18;100.00;98844.59;5033642;28;19923;-53
2022/06/27 00:26:48;;;;;;;;;;;;;;;24.39;100.00;98848.44;5032218;28;19921;-53
2022/06/27 00:29:14;;;;;;;;;;;;;;;24.18;100.00;98854.69;5032246;28;19995;-53
2022/06/27 00:31:39;;;;;;;;;;;;;;;24.28;100.00;98854.66;5033074;28;20884;-50
2022/06/27 00:34:04;;;;;;;;;;;;;;;24.55;100.00;98851.34;5033860;28;19924;-52
2022/06/27 00:36:30;;;;;;;;;;;;;;;23.07;100.00;98870.63;5032168;28;19913;-56
2022/06/27 00:38:55;;;;;;;;;;;;;;;23.46;100.00;98857.63;5032559;28;19924;-56
2022/06/27 00:41:20;;;;;;;;;;;;;;;23.89;100.00;98849.41;5033102;28;20382;-56
2022/06/27 00:43:46;;;;;;;;;;;;;;;24.35;100.00;98852.31;5033274;28;20023;-56
2022/06/27 00:46:11;;;;;;;;;;;;;;;24.84;100.00;98856.53;5034183;28;19951;-56
2022/06/27 00:48:36;;;;;;;;;;;;;;;25.07;100.00;98858.81;5033228;28;19920;-55
2022/06/27 00:51:02;;;;;;;;;;;;;;;23.83;100.00;98872.81;5033730;28;19964;-56
2022/06/27 00:53:28;;;;;;;;;;;;;;;24.29;100.00;98858.97;5032401;28;19921;-55
2022/06/27 00:55:54;;;;;;;;;;;;;;;24.90;100.00;98852.47;5034066;28;20345;-54
2022/06/27 00:58:19;;;;;;;;;;;;;;;24.78;100.00;98843.94;5031299;28;19920;-55
2022/06/27 01:00:44;;;;;;;;;;;;;;;24.58;100.00;98843.16;5032181;28;19983;-58
2022/06/27 01:03:09;;;;;;;;;;;;;;;24.17;100.00;98842.47;5033749;28;19960;-58
2022/06/27 01:05:34;;;;;;;;;;;;;;;23.77;100.00;98832.94;5034138;28;19970;-56
2022/06/27 01:08:00;;;;;;;;;;;;;;;23.91;100.00;98823.00;5031385;28;20279;-54
2022/06/27 01:10:25;;;;;;;;;;;;;;;24.43;100.00;98829.59;5031295;28;20003;-55
2022/06/27 01:12:50;;;;;;;;;;;;;;;24.73;100.00;98824.28;5031721;28;19925;-55
2022/06/27 01:15:16;;;;;;;;;;;;;;;24.84;100.00;98835.47;5032088;28;19920;-56
2022/06/27 01:17:41;;;;;;;;;;;;;;;24.89;100.00;98828.94;5031827;28;20019;-56
2022/06/27 01:20:07;;;;;;;;;;;;;;;24.78;100.00;98816.78;5031432;28;19921;-57
2022/06/27 01:22:32;;;;;;;;;;;;;;;24.54;100.00;98828.63;5032995;28;19988;-56
2022/06/27 01:24:57;;;;;;;;;;;;;;;24.61;100.00;98829.72;5033144;28;19990;-56
2022/06/27 01:27:22;;;;;;;;;;;;;;;24.95;100.00;98821.28;5032180;28;19979;-55
2022/06/27 01:29:48;;;;;;;;;;;;;;;24.97;100.00;98826.41;5030757;28;19921;-56
2022/06/27 01:32:13;;;;;;;;;;;;;;;24.99;100.00;98830.53;5032700;28;19921;-56
2022/06/27 01:34:38;;;;;;;;;;;;;;;24.33;100.00;98843.72;5031940;28;20488;-56
2022/06/27 01:37:04;;;;;;;;;;;;;;;24.35;100.00;98831.25;5030894;28;19951;-56
2022/06/27 01:39:29;;;;;;;;;;;;;;;22.73;100.00;98831.47;5030621;28;19997;-56
2022/06/27 01:41:58;;;;;;;;;;;;;;;22.44;100.00;98811.16;5031549;28;21049;-54
2022/06/27 01:44:25;;;;;;;;;;;;;;;23.82;100.00;98802.78;5032485;28;20045;-56
2022/06/27 01:46:53;;;;;;;;;;;;;;;23.55;100.00;98796.34;5030401;28;19920;-56
2022/06/27 01:49:19;;;;;;;;;;;;;;;24.12;100.00;98789.47;5031740;28;19921;-56
2022/06/27 01:51:45;;;;;;;;;;;;;;;24.63;100.00;98790.91;5032009;28;20479;-55
2022/06/27 01:54:11;;;;;;;;;;;;;;;24.78;100.00;98788.63;5031599;28;20250;-57
2022/06/27 01:56:37;;;;;;;;;;;;;;;24.87;100.00;98794.81;5030466;28;19920;-52
2022/06/27 01:59:02;;;;;;;;;;;;;;;24.85;100.00;98794.13;5029497;28;19978;-55
2022/06/27 02:01:27;;;;;;;;;;;;;;;25.05;100.00;98787.81;5032347;28;19983;-55
2022/06/27 02:03:53;;;;;;;;;;;;;;;25.00;100.00;98768.97;5032409;28;19920;-56
2022/06/27 02:06:19;;;;;;;;;;;;;;;24.41;100.00;98767.53;5032235;28;19958;-56
2022/06/27 02:08:46;;;;;;;;;;;;;;;23.95;100.00;98769.97;5032320;28;20798;-54
2022/06/27 02:11:14;;;;;;;;;;;;;;;24.50;100.00;98766.69;5030289;28;20055;-54
2022/06/27 02:13:40;;;;;;;;;;;;;;;24.76;100.00;98750.25;5032260;28;19917;-54
2022/06/27 02:16:11;;;;;;;;;;;;;;;24.27;100.00;98734.59;5029925;28;20405;-53
2022/06/27 02:18:36;;;;;;;;;;;;;;;24.69;100.00;98736.00;5034709;28;19920;-54
2022/06/27 02:21:02;;;;;;;;;;;;;;;24.49;100.00;98738.69;5035134;28;19990;-51
2022/06/27 02:23:27;;;;;;;;;;;;;;;23.99;100.00;98741.56;5033978;28;19927;-49
2022/06/27 02:25:52;;;;;;;;;;;;;;;24.50;100.00;98748.28;5035553;28;19920;-51
2022/06/27 02:28:18;;;;;;;;;;;;;;;24.66;100.00;98754.72;5035583;28;19920;-54
2022/06/27 02:30:43;;;;;;;;;;;;;;;24.63;100.00;98735.63;5034760;28;20020;-50
2022/06/27 02:33:08;;;;;;;;;;;;;;;23.91;100.00;98739.66;5035503;28;20398;-54
2022/06/27 02:35:33;;;;;;;;;;;;;;;24.08;100.00;98708.31;5035245;28;20332;-53
2022/06/27 02:37:59;;;;;;;;;;;;;;;24.21;100.00;98707.03;5035697;28;20452;-50
2022/06/27 02:40:24;;;;;;;;;;;;;;;24.32;100.00;98705.22;5033213;28;19928;-53
2022/06/27 02:42:49;;;;;;;;;;;;;;;22.98;100.00;98702.31;5034080;28;19921;-53
2022/06/27 02:45:15;;;;;;;;;;;;;;;21.68;100.00;98693.28;5033855;28;19932;-53
2022/06/27 02:47:40;;;;;;;;;;;;;;;21.87;100.00;98689.13;5033591;28;19921;-54
2022/06/27 02:50:05;;;;;;;;;;;;;;;22.78;100.00;98671.75;5033786;28;20377;-54
2022/06/27 02:52:31;;;;;;;;;;;;;;;22.84;100.00;98668.59;5035161;28;19921;-54
2022/06/27 02:55:02;;;;;;;;;;;;;;;23.63;100.00;98659.81;5033795;28;20297;-51
2022/06/27 02:57:39;;;;;;;;;;;;;;;23.40;100.00;98672.41;5035376;28;20823;-52
2022/06/27 03:00:07;;;;;;;;;;;;;;;23.33;100.00;98661.63;5034783;28;19955;-50
2022/06/27 03:02:32;;;;;;;;;;;;;;;23.03;100.00;98654.69;5035369;28;19921;-52
2022/06/27 03:04:58;;;;;;;;;;;;;;;23.69;100.00;98640.81;5035186;28;19924;-55
2022/06/27 03:07:23;;;;;;;;;;;;;;;23.74;100.00;98651.81;5033729;28;19947;-53
2022/06/27 03:09:48;;;;;;;;;;;;;;;23.94;100.00;98664.88;5035127;28;19920;-54
2022/06/27 03:12:14;;;;;;;;;;;;;;;22.04;100.00;98678.06;5034251;28;19924;-50
2022/06/27 03:14:39;;;;;;;;;;;;;;;20.89;100.00;98670.00;5035185;28;20508;-50
2022/06/27 03:17:04;;;;;;;;;;;;;;;20.99;100.00;98664.00;5035254;28;19924;-52
2022/06/27 03:19:30;;;;;;;;;;;;;;;21.43;100.00;98659.59;5034222;28;19921;-53
2022/06/27 03:21:55;;;;;;;;;;;;;;;21.31;100.00;98654.38;5033779;28;19924;-54
2022/06/27 03:24:20;;;;;;;;;;;;;;;21.38;100.00;98669.59;5035499;28;19947;-54
2022/06/27 03:26:46;;;;;;;;;;;;;;;21.47;100.00;98674.09;5034471;28;19920;-53
2022/06/27 03:29:11;;;;;;;;;;;;;;;21.71;100.00;98672.09;5032693;28;19971;-53
2022/06/27 03:31:36;;;;;;;;;;;;;;;21.90;100.00;98660.88;5034073;28;19966;-50
2022/06/27 03:34:01;;;;;;;;;;;;;;;22.03;100.00;98665.94;5034336;28;19931;-51
2022/06/27 03:36:27;;;;;;;;;;;;;;;22.12;100.00;98656.41;5034251;28;20449;-50
2022/06/27 03:38:52;;;;;;;;;;;;;;;22.25;100.00;98657.06;5034623;28;20432;-54
2022/06/27 03:41:17;;;;;;;;;;;;;;;21.96;100.00;98658.69;5034324;28;19925;-53
2022/06/27 03:43:43;;;;;;;;;;;;;;;21.82;100.00;98665.09;5034565;28;19920;-51
2022/06/27 03:46:08;;;;;;;;;;;;;;;21.43;100.00;98662.22;5034475;28;19924;-54
2022/06/27 03:51:17;;;;;;;;;;;;;;;21.45;100.00;98649.81;5033325;28;19928;-53
2022/06/27 03:53:42;;;;;;;;;;;;;;;21.80;100.00;98649.50;5033725;28;19920;-53
2022/06/27 03:56:07;;;;;;;;;;;;;;;21.65;100.00;98650.78;5033881;28;19978;-52
2022/06/27 03:58:33;;;;;;;;;;;;;;;21.92;100.00;98645.03;5032950;28;19917;-52
2022/06/27 04:00:58;;;;;;;;;;;;;;;22.03;100.00;98644.94;5033478;28;19924;-52
2022/06/27 04:03:23;;;;;;;;;;;;;;;22.23;100.00;98645.88;5031571;28;19959;-53
2022/06/27 04:05:48;;;;;;;;;;;;;;;22.09;100.00;98648.81;5033808;28;19920;-53
2022/06/27 04:08:14;;;;;;;;;;;;;;;21.87;100.00;98655.06;5033841;28;20440;-53
2022/06/27 04:10:39;;;;;;;;;;;;;;;22.42;100.00;98650.38;5032890;28;20828;-53
2022/06/27 04:13:04;;;;;;;;;;;;;;;23.09;100.00;98650.69;5034427;28;19963;-53
2022/06/27 04:15:29;;;;;;;;;;;;;;;23.05;100.00;98657.19;5034217;28;19920;-54
2022/06/27 04:17:55;;;;;;;;;;;;;;;23.45;100.00;98659.69;5034153;28;20015;-54
2022/06/27 04:20:20;;;;;;;;;;;;;;;23.79;100.00;98661.88;5033667;28;19924;-54
2022/06/27 04:22:45;;;;;;;;;;;;;;;23.45;100.00;98666.75;5032319;28;20014;-52
2022/06/27 04:25:11;;;;;;;;;;;;;;;23.33;100.00;98677.41;5033935;28;20325;-52
2022/06/27 04:27:36;;;;;;;;;;;;;;;22.94;100.00;98676.47;5034261;28;19920;-53
2022/06/27 04:30:01;;;;;;;;;;;;;;;22.46;100.00;98662.25;5033435;28;19959;-54
2022/06/27 04:32:28;;;;;;;;;;;;;;;22.17;100.00;98650.78;5034212;28;19975;-54
2022/06/27 04:34:53;;;;;;;;;;;;;;;21.77;100.00;98654.19;5034238;28;20405;-54
2022/06/27 04:37:18;;;;;;;;;;;;;;;21.93;100.00;98657.16;5032257;28;19920;-54
2022/06/27 04:39:44;;;;;;;;;;;;;;;21.82;100.00;98660.69;5031815;28;20289;-53
2022/06/27 04:42:09;;;;;;;;;;;;;;;21.51;100.00;98667.66;5033937;28;19999;-54
2022/06/27 04:44:36;;;;;;;;;;;;;;;21.73;100.00;98666.69;5034037;28;19952;-55
2022/06/27 04:47:02;;;;;;;;;;;;;;;21.82;100.00;98679.03;5016343;28;19920;-52
2022/06/27 04:49:28;;;;;;;;;;;;;;;22.99;100.00;98692.72;5033453;28;19931;-56
2022/06/27 04:51:54;;;;;;;;;;;;;;;23.33;100.00;98708.94;5031919;28;19927;-55
2022/06/27 04:54:20;;;;;;;;;;;;;;;23.08;100.00;98722.56;5033526;28;20271;-54
2022/06/27 04:56:46;;;;;;;;;;;;;;;22.76;100.00;98726.19;5034407;28;19921;-55
2022/06/27 04:59:12;;;;;;;;;;;;;;;20.87;100.00;98718.19;5033357;28;19924;-53
2022/06/27 05:01:37;;;;;;;;;;;;;;;21.32;100.00;98723.28;5032057;28;21597;-54
2022/06/27 05:04:03;;;;;;;;;;;;;;;21.42;100.00;98726.06;5034565;28;19979;-55
2022/06/27 05:06:28;;;;;;;;;;;;;;;21.52;100.00;98730.41;5032060;28;19917;-53
2022/06/27 05:08:54;;;;;;;;;;;;;;;21.50;100.00;98731.47;5033717;28;20015;-54
2022/06/27 05:11:19;;;;;;;;;;;;;;;22.17;100.00;98729.47;5033222;28;20355;-55
2022/06/27 05:13:44;;;;;;;;;;;;;;;21.82;100.00;98731.47;5034048;28;19925;-54
2022/06/27 05:16:09;;;;;;;;;;;;;;;22.94;100.00;98744.75;5033872;28;20286;-55
2022/06/27 05:18:35;;;;;;;;;;;;;;;22.17;100.00;98746.06;5032328;28;20302;-54
2022/06/27 05:21:00;;;;;;;;;;;;;;;22.41;100.00;98737.91;5032503;28;19924;-54
2022/06/27 05:23:25;;;;;;;;;;;;;;;22.04;100.00;98722.66;5032449;28;21041;-54
2022/06/27 05:25:50;;;;;;;;;;;;;;;21.99;100.00;98710.91;5032480;28;19925;-55
2022/06/27 05:28:16;;;;;;;;;;;;;;;22.69;100.00;98714.53;5033356;28;19921;-55
2022/06/27 05:30:41;;;;;;;;;;;;;;;22.87;100.00;98733.94;5030827;28;19925;-55
2022/06/27 05:33:06;;;;;;;;;;;;;;;23.50;100.00;98744.19;5033432;28;19967;-55
2022/06/27 05:35:32;;;;;;;;;;;;;;;23.74;100.00;98756.97;5033102;28;19961;-56
2022/06/27 05:37:59;;;;;;;;;;;;;;;23.77;100.00;98745.34;5032409;28;19927;-56
2022/06/27 05:40:24;;;;;;;;;;;;;;;23.80;100.00;98742.44;5032824;28;20908;-55
2022/06/27 05:42:50;;;;;;;;;;;;;;;23.54;100.00;98742.97;5033292;28;19923;-53
2022/06/27 05:45:16;;;;;;;;;;;;;;;24.15;100.00;98741.84;5033178;28;19956;-56
2022/06/27 05:47:42;;;;;;;;;;;;;;;23.58;100.00;98727.72;5032714;28;19921;-54
2022/06/27 05:50:07;;;;;;;;;;;;;;;21.90;100.00;98731.66;5031098;28;19928;-56
2022/06/27 05:52:33;;;;;;;;;;;;;;;22.51;100.00;98727.47;5034380;28;20342;-56
2022/06/27 05:54:59;;;;;;;;;;;;;;;23.80;100.00;98724.03;5036493;28;19920;-55
2022/06/27 05:57:25;;;;;;;;;;;;;;;24.08;100.00;98740.72;5037002;28;19921;-56
2022/06/27 05:59:53;;;;;;;;;;;;;;;23.50;100.00;98736.31;5037171;28;19928;-56
2022/06/27 06:02:19;;;;;;;;;;;;;;;22.59;100.00;98732.06;5037926;28;19921;-56
2022/06/27 06:04:45;;;;;;;;;;;;;;;23.31;100.00;98733.66;5036993;28;20058;-57
2022/06/27 06:07:12;;;;;;;;;;;;;;;23.88;100.00;98731.19;5037276;28;20031;-57
2022/06/27 06:09:37;;;;;;;;;;;;;;;24.00;100.00;98733.53;5036168;28;20022;-56
2022/06/27 06:12:03;;;;;;;;;;;;;;;23.69;100.00;98735.47;5036902;28;21096;-57
2022/06/27 06:14:28;;;;;;;;;;;;;;;23.89;100.00;98735.50;5037048;28;19925;-55
2022/06/27 06:16:54;;;;;;;;;;;;;;;23.20;100.00;98745.13;5036842;28;19920;-57
2022/06/27 06:19:20;;;;;;;;;;;;;;;23.64;100.00;98748.22;5036473;28;20276;-57
2022/06/27 06:21:46;;;;;;;;;;;;;;;24.17;100.00;98749.56;5035167;28;19940;-57
2022/06/27 06:24:12;;;;;;;;;;;;;;;24.70;100.00;98772.72;5036459;28;19925;-57
2022/06/27 06:26:37;;;;;;;;;;;;;;;24.27;100.00;98770.59;5036896;28;19928;-58
2022/06/27 06:29:12;;;;;;;;;;;;;;;24.78;100.00;98772.00;5035844;28;20613;-58
2022/06/27 06:31:46;;;;;;;;;;;;;;;24.97;100.00;98778.97;5035841;28;19917;-58
2022/06/27 06:34:12;;;;;;;;;;;;;;;25.35;100.00;98771.88;5036262;28;20452;-58
2022/06/27 06:36:38;;;;;;;;;;;;;;;24.84;100.00;98759.06;5035797;28;20015;-58
2022/06/27 06:39:04;;;;;;;;;;;;;;;24.83;100.00;98769.75;5035965;28;19986;-58
2022/06/27 06:41:30;;;;;;;;;;;;;;;24.79;100.00;98782.41;5036594;28;20194;-58
2022/06/27 06:43:56;;;;;;;;;;;;;;;24.94;100.00;98797.72;5036266;28;19932;-58
2022/06/27 06:46:22;;;;;;;;;;;;;;;24.92;100.00;98771.50;5035791;28;19917;-58
2022/06/27 06:48:47;;;;;;;;;;;;;;;25.53;100.00;98775.34;5035873;28;19920;-59
2022/06/27 06:51:15;;;;;;;;;;;;;;;25.95;100.00;98773.91;5035674;28;20039;-58
2022/06/27 06:53:41;;;;;;;;;;;;;;;26.77;100.00;98793.78;5034493;28;20010;-58
2022/06/27 06:56:06;;;;;;;;;;;;;;;26.83;100.00;98800.25;5036549;28;19928;-58
2022/06/27 06:58:32;;;;;;;;;;;;;;;26.20;100.00;98791.59;5035529;28;19928;-59
2022/06/27 07:00:57;;;;;;;;;;;;;;;25.97;100.00;98808.91;5035513;28;19925;-58
2022/06/27 07:03:22;;;;;;;;;;;;;;;26.41;100.00;98822.09;5035605;28;19921;-59
2022/06/27 07:05:48;;;;;;;;;;;;;;;26.10;100.00;98827.81;5035324;28;19925;-59
2022/06/27 07:08:13;;;;;;;;;;;;;;;26.58;100.00;98834.47;5035923;28;20008;-59
2022/06/27 07:10:38;;;;;;;;;;;;;;;26.20;100.00;98831.19;5035433;28;19978;-59
2022/06/27 07:13:04;;;;;;;;;;;;;;;25.84;100.00;98825.91;5035826;28;19920;-59
2022/06/27 07:15:30;;;;;;;;;;;;;;;25.94;100.00;98825.03;5035028;28;20440;-59
2022/06/27 07:17:55;;;;;;;;;;;;;;;25.86;100.00;98820.47;5035891;28;19924;-59
2022/06/27 07:20:22;;;;;;;;;;;;;;;25.29;100.00;98820.72;5034959;28;20741;-58
2022/06/27 07:22:47;;;;;;;;;;;;;;;25.93;100.00;98818.09;5035212;28;19921;-59
2022/06/27 07:25:13;;;;;;;;;;;;;;;25.55;100.00;98820.03;5036077;28;19920;-58
2022/06/27 07:27:39;;;;;;;;;;;;;;;25.49;100.00;98802.16;5034914;28;19948;-59
2022/06/27 07:30:06;;;;;;;;;;;;;;;25.11;100.00;98788.19;5035940;28;19921;-59
2022/06/27 07:32:32;;;;;;;;;;;;;;;24.30;100.00;98791.38;5034858;28;19920;-59
2022/06/27 07:34:58;;;;;;;;;;;;;;;24.00;100.00;98782.69;5035228;28;20744;-58
2022/06/27 07:37:24;;;;;;;;;;;;;;;23.98;100.00;98776.75;5036280;28;19921;-59
2022/06/27 07:39:49;;;;;;;;;;;;;;;;;;5034617;28;19920;-59
2022/06/27 07:42:14;;;;;;;;;;;;;;;23.95;100.00;98782.28;5036091;28;20009;-59
2022/06/27 07:44:41;;;;;;;;;;;;;;;23.95;100.00;98780.50;5034466;28;19970;-59
2022/06/27 07:47:07;;;;;;;;;;;;;;;24.20;100.00;98765.09;5035990;28;19921;-59
2022/06/27 07:49:32;;;;;;;;;;;;;;;23.88;100.00;98760.13;5034340;28;20077;-59
2022/06/27 07:51:57;;;;;;;;;;;;;;;24.48;100.00;98773.91;5035749;28;20937;-59
2022/06/27 07:54:24;;;;;;;;;;;;;;;26.52;100.00;98752.34;5034826;28;19921;-58
2022/06/27 07:56:51;;;;;;;;;;;;;;;26.39;100.00;98750.13;5034132;28;19921;-58
2022/06/27 07:59:17;;;;;;;;;;;;;;;25.49;100.00;98757.34;5031017;28;19921;-59
2022/06/27 08:01:43;;;;;;;;;;;;;;;24.60;100.00;98741.16;5034449;28;19925;-58
2022/06/27 08:04:11;;;;;;;;;;;;;;;26.02;100.00;98732.72;5033255;28;19925;-58
2022/06/27 08:06:36;;;;;;;;;;;;;;;25.37;100.00;98739.09;5035063;28;19927;-58
2022/06/27 08:09:02;;;;;;;;;;;;;;;26.66;100.00;98736.78;5034047;28;19920;-59
2022/06/27 08:11:28;;;;;;;;;;;;;;;25.71;100.00;98746.31;5035458;28;19960;-59
2022/06/27 08:13:55;;;;;;;;;;;;;;;25.35;100.00;98746.31;5034787;28;19975;-59
2022/06/27 08:16:21;;;;;;;;;;;;;;;26.41;100.00;98742.88;5033728;28;20069;-59
2022/06/27 08:18:47;;;;;;;;;;;;;;;26.16;100.00;98752.44;5034818;28;19932;-59
2022/06/27 08:21:14;;;;;;;;;;;;;;;27.59;100.00;98769.44;5034689;28;20318;-58
2022/06/27 08:23:39;;;;;;;;;;;;;;;27.82;100.00;98773.09;5034808;28;19951;-59
2022/06/27 08:26:06;;;;;;;;;;;;;;;27.86;100.00;98785.03;5033278;28;19932;-59
2022/06/27 08:28:33;;;;;;;;;;;;;;;27.49;100.00;98788.94;5034273;28;19956;-58
2022/06/27 08:31:01;;;;;;;;;;;;;;;27.57;100.00;98788.13;5032754;28;19921;-58
2022/06/27 08:33:27;;;;;;;;;;;;;;;26.98;100.00;98777.53;5033963;28;20493;-58
2022/06/27 08:35:53;;;;;;;;;;;;;;;27.92;100.00;98776.44;5033803;28;19960;-59
2022/06/27 08:38:19;;;;;;;;;;;;;;;27.91;100.00;98785.34;5032931;28;20048;-58
2022/06/27 08:40:45;;;;;;;;;;;;;;;28.03;100.00;98796.47;5033309;28;19925;-59
2022/06/27 08:43:11;;;;;;;;;;;;;;;27.90;100.00;98802.25;5032810;28;19920;-59
2022/06/27 08:45:36;;;;;;;;;;;;;;;27.53;100.00;98802.69;5034543;28;19971;-59
2022/06/27 08:48:07;;;;;;;;;;;;;;;28.19;100.00;98810.66;5035342;28;19931;-58
2022/06/27 08:50:33;;;;;;;;;;;;;;;28.75;100.00;98814.25;5034794;28;20416;-58
2022/06/27 08:52:58;;;;;;;;;;;;;;;28.66;100.00;98816.09;5034737;28;20428;-59
2022/06/27 08:55:24;;;;;;;;;;;;;;;28.39;100.00;98829.69;5033043;28;19921;-59
2022/06/27 08:57:49;;;;;;;;;;;;;;;28.36;100.00;98836.16;5034665;28;19921;-58
2022/06/27 09:00:15;;;;;;;;;;;;;;;27.42;100.00;98835.53;5034301;28;19921;-58
2022/06/27 09:02:43;;;;;;;;;;;;;;;28.35;100.00;98830.03;5035694;28;19969;-59
2022/06/27 09:05:24;;;;;;;;;;;;;;;27.99;100.00;98828.72;5034623;28;19917;-59
2022/06/27 09:07:53;;;;;;;;;;;;;;;27.64;100.00;98827.97;5035349;28;19917;-59
2022/06/27 09:10:29;;;;;;;;;;;;;;;28.27;100.00;98830.03;5034601;28;19952;-59
2022/06/27 09:13:03;;;;;;;;;;;;;;;27.86;100.00;98839.78;5034247;28;19939;-59
2022/06/27 09:15:38;;;;;;;;;;;;;;;27.92;100.00;98845.25;5034650;28;20346;-59
2022/06/27 09:18:05;;;;;;;;;;;;;;;28.36;100.00;98847.56;5033488;28;20039;-59
2022/06/27 09:20:44;;;;;;;;;;;;;;;28.36;100.00;98852.03;5032956;28;19932;-59
2022/06/27 09:23:14;;;;;;;;;;;;;;;27.71;100.00;98858.94;5033225;28;20381;-59
2022/06/27 09:25:39;;;;;;;;;;;;;;;28.62;100.00;98851.88;5031558;28;19917;-58
2022/06/27 09:28:04;;;;;;;;;;;;;;;28.91;100.00;98861.09;5033997;28;20444;-58
2022/06/27 09:30:31;;;;;;;;;;;;;;;28.76;100.00;98864.44;5032859;28;19920;-59
2022/06/27 09:32:58;;;;;;;;;;;;;;;27.92;100.00;98870.91;5033408;28;20301;-58
2022/06/27 09:35:24;;;;;;;;;;;;;;;26.94;100.00;98873.97;5031826;28;19927;-59
2022/06/27 09:37:53;;;;;;;;;;;;;;;26.52;100.00;98879.13;5032098;28;19921;-59
2022/06/27 09:40:19;;;;;;;;;;;;;;;26.50;100.00;98881.91;5030754;28;20358;-59
2022/06/27 09:42:44;;;;;;;;;;;;;;;26.72;100.00;98885.06;5031802;28;19970;-58
2022/06/27 09:45:10;;;;;;;;;;;;;;;27.92;100.00;98879.66;5030729;28;19943;-59
2022/06/27 09:47:36;;;;;;;;;;;;;;;27.46;100.00;98883.63;5030986;28;20671;-58
2022/06/27 09:50:03;;;;;;;;;;;;;;;25.73;100.00;98878.03;5031462;28;19963;-59
2022/06/27 09:52:28;;;;;;;;;;;;;;;25.09;100.00;98869.19;5030398;28;20436;-58
2022/06/27 09:54:54;;;;;;;;;;;;;;;25.07;100.00;98855.34;5030509;28;19939;-59
2022/06/27 09:57:20;;;;;;;;;;;;;;;25.54;100.00;98874.56;5033009;28;19917;-58
2022/06/27 09:59:47;;;;;;;;;;;;;;;26.21;100.00;98875.09;5031324;28;19932;-58
2022/06/27 10:02:16;;;;;;;;;;;;;;;25.90;100.00;98872.00;5030781;28;20293;-58
2022/06/27 10:04:43;;;;;;;;;;;;;;;26.74;100.00;98878.63;5032964;28;19970;-58
2022/06/27 10:07:08;;;;;;;;;;;;;;;26.74;100.00;98875.19;5032540;28;20291;-58
2022/06/27 10:09:36;;;;;;;;;;;;;;;27.11;100.00;98883.63;5030517;28;20023;-58
2022/06/27 10:12:23;;;;;;;;;;;;;;;26.76;100.00;98881.13;5031356;28;19935;-58
2022/06/27 10:15:06;;;;;;;;;;;;;;;28.21;100.00;98886.28;5030285;28;20425;-58
2022/06/27 10:17:32;;;;;;;;;;;;;;;26.84;100.00;98897.03;5032291;28;19991;-58
2022/06/27 10:20:01;;;;;;;;;;;;;;;25.56;100.00;98884.97;5032188;28;20370;-58
2022/06/27 10:22:26;;;;;;;;;;;;;;;25.98;100.00;98881.78;5029905;28;19925;-58
2022/06/27 10:24:52;;;;;;;;;;;;;;;25.56;100.00;98884.97;5031726;28;19958;-59
2022/06/27 10:27:28;;;;;;;;;;;;;;;25.57;100.00;98876.09;5032381;28;19959;-59
2022/06/27 10:29:53;;;;;;;;;;;;;;;24.34;100.00;98871.72;5031665;28;19921;-59
2022/06/27 10:32:37;;;;;;;;;;;;;;;24.54;100.00;98865.50;5033144;28;19982;-59
2022/06/27 10:35:03;;;;;;;;;;;;;;;25.16;100.00;98867.66;5032549;28;19917;-59
2022/06/27 10:37:29;;;;;;;;;;;;;;;25.32;100.00;98870.53;5032219;28;19966;-58
2022/06/27 10:39:54;;;;;;;;;;;;;;;24.71;100.00;98873.63;5035452;28;19917;-58
2022/06/27 10:42:39;;;;;;;;;;;;;;;25.72;100.00;98871.13;5033267;28;20322;-58
2022/06/27 10:45:19;;;;;;;;;;;;;;;26.52;100.00;98877.28;5035975;28;20035;-58
2022/06/27 10:47:44;;;;;;;;;;;;;;;25.82;100.00;98878.00;5035929;28;19932;-59
2022/06/27 10:50:10;;;;;;;;;;;;;;;24.97;100.00;98863.28;5035341;28;19917;-58
2022/06/27 10:52:35;;;;;;;;;;;;;;;24.57;100.00;98862.56;5034786;28;19996;-58
2022/06/27 10:55:01;;;;;;;;;;;;;;;25.44;100.00;98871.97;5035945;28;19963;-58
2022/06/27 10:57:36;;;;;;;;;;;;;;;25.44;100.00;98866.69;5034789;28;19921;-59
2022/06/27 11:00:04;;;;;;;;;;;;;;;25.69;100.00;98863.50;5034102;28;20431;-58
2022/06/27 11:02:29;;;;;;;;;;;;;;;25.40;100.00;98870.59;5033384;28;19925;-59
2022/06/27 11:04:55;;;;;;;;;;;;;;;25.09;100.00;98866.56;5035402;28;19972;-59
2022/06/27 11:07:21;;;;;;;;;;;;;;;25.32;100.00;98875.78;5032057;28;20389;-58
2022/06/27 11:09:47;;;;;;;;;;;;;;;25.86;100.00;98882.00;5029727;28;19924;-59
2022/06/27 11:12:13;;;;;;;;;;;;;;;26.28;100.00;98884.06;5035138;28;20349;-58
2022/06/27 11:14:58;;;;;;;;;;;;;;;27.27;100.00;98892.66;5035157;28;19916;-58
2022/06/27 11:17:26;;;;;;;;;;;;;;;27.04;100.00;98887.06;5034649;28;19999;-59
2022/06/27 11:20:06;;;;;;;;;;;;;;;26.77;100.00;98888.88;5034794;28;20024;-59
2022/06/27 11:22:32;;;;;;;;;;;;;;;26.41;100.00;98886.31;5034587;28;19982;-59
2022/06/27 11:24:57;;;;;;;;;;;;;;;27.74;100.00;98893.00;5035572;28;19920;-58
2022/06/27 11:27:22;;;;;;;;;;;;;;;29.31;100.00;98904.38;5034038;28;19928;-59
2022/06/27 11:32:35;;;;;;;;;;;;;;;27.07;100.00;98913.19;5035142;28;20356;-59
2022/06/27 11:35:00;;;;;;;;;;;;;;;28.04;100.00;98900.53;5035927;28;19917;-58
2022/06/27 11:37:25;;;;;;;;;;;;;;;27.46;100.00;98905.66;5034835;28;20023;-59
2022/06/27 11:39:58;;;;;;;;;;;;;;;27.25;100.00;98907.84;5032525;28;19928;-59
2022/06/27 11:42:27;;;;;;;;;;;;;;;28.68;100.00;98898.91;5035562;28;19971;-58
2022/06/27 11:45:04;;;;;;;;;;;;;;;28.79;100.00;98905.69;5033025;28;20632;-59
2022/06/27 11:47:30;;;;;;;;;;;;;;;27.61;100.00;98899.75;5035339;28;20382;-58
2022/06/27 11:50:05;;;;;;;;;;;;;;;28.44;100.00;98899.72;5033183;28;19920;-59
2022/06/27 11:52:34;;;;;;;;;;;;;;;27.25;100.00;98902.56;5034936;28;19965;-58
2022/06/27 11:55:05;;;;;;;;;;;;;;;27.35;100.00;98905.09;5034755;28;19933;-59
2022/06/27 11:57:32;;;;;;;;;;;;;;;26.94;100.00;98908.34;5033503;28;20000;-59
2022/06/27 11:59:58;;;;;;;;;;;;;;;26.98;100.00;98903.56;5032869;28;19921;-59
2022/06/27 12:02:27;;;;;;;;;;;;;;;26.63;100.00;98900.84;5033732;28;19983;-59
2022/06/27 12:05:03;;;;;;;;;;;;;;;25.79;100.00;98902.03;5031449;28;19924;-59
2022/06/27 12:07:28;;;;;;;;;;;;;;;25.99;100.00;98907.22;5032816;28;20034;-58
2022/06/27 12:09:54;;;;;;;;;;;;;;;25.32;100.00;98910.06;5032173;28;20784;-59
2022/06/27 12:12:20;;;;;;;;;;;;;;;25.45;100.00;98913.19;5034036;28;19920;-59
2022/06/27 12:14:46;;;;;;;;;;;;;;;25.84;100.00;98918.25;5032503;28;19924;-59
2022/06/27 12:17:11;;;;;;;;;;;;;;;26.36;100.00;98917.59;5034393;28;19978;-59
2022/06/27 12:19:36;;;;;;;;;;;;;;;26.21;100.00;98922.59;5033395;28;19924;-59
2022/06/27 12:22:02;;;;;;;;;;;;;;;26.23;100.00;98933.84;5033168;28;19935;-59
2022/06/27 12:24:27;;;;;;;;;;;;;;;25.38;100.00;98925.28;5034391;28;19917;-59
2022/06/27 12:26:52;;;;;;;;;;;;;;;26.72;100.00;98922.06;5032732;28;19925;-59
2022/06/27 12:29:18;;;;;;;;;;;;;;;25.94;100.00;98922.66;5033233;28;19956;-59
2022/06/27 12:31:43;;;;;;;;;;;;;;;27.28;100.00;98926.06;5033295;28;19966;-59
2022/06/27 12:34:08;;;;;;;;;;;;;;;26.22;100.00;98924.25;5033843;28;19940;-59
2022/06/27 12:36:34;;;;;;;;;;;;;;;26.23;100.00;98925.94;5033465;28;19970;-59
2022/06/27 12:39:00;;;;;;;;;;;;;;;25.66;100.00;98925.31;5033032;28;19924;-59